sensor_id;sensor_type;location;lat;lon;timestamp;P1;durP1;ratioP1;P2;durP2;ratioP2
50815;SDS011;39717;47.324;8.788;2023-03-01T00:00:46;32.30;;;18.93;;
50815;SDS011;39717;47.324;8.788;2023-03-01T00:03:12;29.97;;;18.23;;
50815;SDS011;39717;47.324;8.788;2023-03-01T00:05:45;34.30;;;19.43;;
50815;SDS011;39717;47.324;8.788;2023-03-01T00:08:12;29.87;;;18.10;;
50815;SDS011;39717;47.324;8.788;2023-03-01T00:10:38;32.53;;;18.60;;
50815;SDS011;39717;47.324;8.788;2023-03-01T00:13:04;33.27;;;19.63;;
50815;SDS011;39717;47.324;8.788;2023-03-01T00:15:31;31.57;;;19.50;;
50815;SDS011;39717;47.324;8.788;2023-03-01T00:17:57;33.27;;;19.10;;
50815;SDS011;39717;47.324;8.788;2023-03-01T00:20:23;31.83;;;19.07;;
50815;SDS011;39717;47.324;8.788;2023-03-01T00:22:50;28.53;;;18.67;;
50815;SDS011;39717;47.324;8.788;2023-03-01T00:25:16;30.03;;;17.87;;
50815;SDS011;39717;47.324;8.788;2023-03-01T00:27:42;32.23;;;18.70;;
50815;SDS011;39717;47.324;8.788;2023-03-01T00:30:08;33.93;;;19.43;;
50815;SDS011;39717;47.324;8.788;2023-03-01T00:32:34;31.83;;;18.03;;
50815;SDS011;39717;47.324;8.788;2023-03-01T00:35:00;30.80;;;19.23;;
50815;SDS011;39717;47.324;8.788;2023-03-01T00:37:26;30.90;;;18.83;;
50815;SDS011;39717;47.324;8.788;2023-03-01T00:39:53;34.23;;;19.03;;
50815;SDS011;39717;47.324;8.788;2023-03-01T00:42:19;34.87;;;19.93;;
50815;SDS011;39717;47.324;8.788;2023-03-01T00:44:45;31.07;;;18.33;;
50815;SDS011;39717;47.324;8.788;2023-03-01T00:47:11;30.33;;;18.27;;
50815;SDS011;39717;47.324;8.788;2023-03-01T00:49:37;29.67;;;17.40;;
50815;SDS011;39717;47.324;8.788;2023-03-01T00:52:03;30.53;;;17.47;;
50815;SDS011;39717;47.324;8.788;2023-03-01T00:54:29;30.17;;;17.47;;
50815;SDS011;39717;47.324;8.788;2023-03-01T00:56:55;29.43;;;17.03;;
50815;SDS011;39717;47.324;8.788;2023-03-01T00:59:21;30.27;;;18.13;;
50815;SDS011;39717;47.324;8.788;2023-03-01T01:01:47;28.77;;;17.30;;
50815;SDS011;39717;47.324;8.788;2023-03-01T01:04:14;31.13;;;17.10;;
50815;SDS011;39717;47.324;8.788;2023-03-01T01:06:41;31.10;;;17.10;;
50815;SDS011;39717;47.324;8.788;2023-03-01T01:09:08;28.87;;;16.97;;
50815;SDS011;39717;47.324;8.788;2023-03-01T01:11:42;32.30;;;18.10;;
50815;SDS011;39717;47.324;8.788;2023-03-01T01:14:08;32.43;;;18.17;;
50815;SDS011;39717;47.324;8.788;2023-03-01T01:16:34;31.80;;;18.13;;
50815;SDS011;39717;47.324;8.788;2023-03-01T01:19:01;32.87;;;18.60;;
50815;SDS011;39717;47.324;8.788;2023-03-01T01:21:27;33.00;;;19.10;;
50815;SDS011;39717;47.324;8.788;2023-03-01T01:23:53;33.20;;;17.77;;
50815;SDS011;39717;47.324;8.788;2023-03-01T01:26:24;32.20;;;18.43;;
50815;SDS011;39717;47.324;8.788;2023-03-01T01:28:50;35.83;;;18.20;;
50815;SDS011;39717;47.324;8.788;2023-03-01T01:31:16;32.00;;;18.33;;
50815;SDS011;39717;47.324;8.788;2023-03-01T01:33:43;34.43;;;18.70;;
50815;SDS011;39717;47.324;8.788;2023-03-01T01:36:09;35.40;;;19.20;;
50815;SDS011;39717;47.324;8.788;2023-03-01T01:38:36;28.20;;;18.03;;
50815;SDS011;39717;47.324;8.788;2023-03-01T01:41:03;34.23;;;19.03;;
50815;SDS011;39717;47.324;8.788;2023-03-01T01:43:31;35.50;;;20.00;;
50815;SDS011;39717;47.324;8.788;2023-03-01T01:46:03;33.77;;;19.37;;
50815;SDS011;39717;47.324;8.788;2023-03-01T01:48:40;35.13;;;18.73;;
50815;SDS011;39717;47.324;8.788;2023-03-01T01:51:15;36.30;;;20.10;;
50815;SDS011;39717;47.324;8.788;2023-03-01T01:53:44;37.57;;;21.00;;
50815;SDS011;39717;47.324;8.788;2023-03-01T01:56:12;35.60;;;19.53;;
50815;SDS011;39717;47.324;8.788;2023-03-01T01:58:39;34.37;;;20.23;;
50815;SDS011;39717;47.324;8.788;2023-03-01T02:01:06;34.37;;;20.43;;
50815;SDS011;39717;47.324;8.788;2023-03-01T02:03:33;36.07;;;19.57;;
50815;SDS011;39717;47.324;8.788;2023-03-01T02:06:12;35.97;;;20.37;;
50815;SDS011;39717;47.324;8.788;2023-03-01T02:08:41;39.00;;;22.23;;
50815;SDS011;39717;47.324;8.788;2023-03-01T02:11:08;37.97;;;21.00;;
50815;SDS011;39717;47.324;8.788;2023-03-01T02:13:35;36.33;;;21.10;;
50815;SDS011;39717;47.324;8.788;2023-03-01T02:16:03;39.20;;;20.57;;
50815;SDS011;39717;47.324;8.788;2023-03-01T02:18:29;38.60;;;20.53;;
50815;SDS011;39717;47.324;8.788;2023-03-01T02:23:22;38.67;;;20.47;;
50815;SDS011;39717;47.324;8.788;2023-03-01T02:30:48;38.83;;;22.00;;
50815;SDS011;39717;47.324;8.788;2023-03-01T02:33:34;37.37;;;21.10;;
50815;SDS011;39717;47.324;8.788;2023-03-01T02:36:04;39.17;;;21.33;;
50815;SDS011;39717;47.324;8.788;2023-03-01T02:38:32;38.63;;;20.97;;
50815;SDS011;39717;47.324;8.788;2023-03-01T02:40:58;34.80;;;19.77;;
50815;SDS011;39717;47.324;8.788;2023-03-01T02:43:27;36.67;;;21.23;;
50815;SDS011;39717;47.324;8.788;2023-03-01T02:45:57;38.07;;;21.77;;
50815;SDS011;39717;47.324;8.788;2023-03-01T02:48:23;38.57;;;22.47;;
50815;SDS011;39717;47.324;8.788;2023-03-01T02:51:24;39.20;;;21.90;;
50815;SDS011;39717;47.324;8.788;2023-03-01T02:53:45;38.40;;;21.87;;
50815;SDS011;39717;47.324;8.788;2023-03-01T02:56:14;39.07;;;21.67;;
50815;SDS011;39717;47.324;8.788;2023-03-01T02:58:41;41.70;;;22.63;;
50815;SDS011;39717;47.324;8.788;2023-03-01T03:01:13;39.00;;;21.40;;
50815;SDS011;39717;47.324;8.788;2023-03-01T03:03:41;40.07;;;22.63;;
50815;SDS011;39717;47.324;8.788;2023-03-01T03:06:07;41.33;;;22.87;;
50815;SDS011;39717;47.324;8.788;2023-03-01T03:08:34;36.87;;;21.37;;
50815;SDS011;39717;47.324;8.788;2023-03-01T03:11:00;40.97;;;22.17;;
50815;SDS011;39717;47.324;8.788;2023-03-01T03:13:26;40.10;;;21.97;;
50815;SDS011;39717;47.324;8.788;2023-03-01T03:15:56;38.50;;;21.87;;
50815;SDS011;39717;47.324;8.788;2023-03-01T03:18:23;40.57;;;21.60;;
50815;SDS011;39717;47.324;8.788;2023-03-01T03:20:53;41.27;;;21.17;;
50815;SDS011;39717;47.324;8.788;2023-03-01T03:23:20;40.13;;;22.00;;
50815;SDS011;39717;47.324;8.788;2023-03-01T03:25:48;39.30;;;22.03;;
50815;SDS011;39717;47.324;8.788;2023-03-01T03:28:15;35.73;;;21.30;;
50815;SDS011;39717;47.324;8.788;2023-03-01T03:30:41;38.70;;;21.97;;
50815;SDS011;39717;47.324;8.788;2023-03-01T03:33:08;35.97;;;21.97;;
50815;SDS011;39717;47.324;8.788;2023-03-01T03:35:40;37.87;;;21.57;;
50815;SDS011;39717;47.324;8.788;2023-03-01T03:38:08;38.60;;;21.20;;
50815;SDS011;39717;47.324;8.788;2023-03-01T03:40:41;37.87;;;20.93;;
50815;SDS011;39717;47.324;8.788;2023-03-01T03:43:14;35.80;;;20.47;;
50815;SDS011;39717;47.324;8.788;2023-03-01T03:45:40;40.53;;;21.67;;
50815;SDS011;39717;47.324;8.788;2023-03-01T03:48:07;38.20;;;22.23;;
50815;SDS011;39717;47.324;8.788;2023-03-01T03:50:34;36.07;;;20.90;;
50815;SDS011;39717;47.324;8.788;2023-03-01T03:53:01;39.87;;;21.70;;
50815;SDS011;39717;47.324;8.788;2023-03-01T03:55:27;34.97;;;19.67;;
50815;SDS011;39717;47.324;8.788;2023-03-01T03:57:57;36.10;;;21.67;;
50815;SDS011;39717;47.324;8.788;2023-03-01T04:00:25;38.43;;;21.87;;
50815;SDS011;39717;47.324;8.788;2023-03-01T04:02:51;37.80;;;21.80;;
50815;SDS011;39717;47.324;8.788;2023-03-01T04:05:21;34.30;;;20.40;;
50815;SDS011;39717;47.324;8.788;2023-03-01T04:07:48;32.60;;;20.93;;
50815;SDS011;39717;47.324;8.788;2023-03-01T04:10:15;36.67;;;21.43;;
50815;SDS011;39717;47.324;8.788;2023-03-01T04:12:42;39.17;;;22.03;;
50815;SDS011;39717;47.324;8.788;2023-03-01T04:15:08;36.87;;;20.77;;
50815;SDS011;39717;47.324;8.788;2023-03-01T04:17:45;33.17;;;20.03;;
50815;SDS011;39717;47.324;8.788;2023-03-01T04:20:13;39.27;;;20.93;;
50815;SDS011;39717;47.324;8.788;2023-03-01T04:22:42;33.73;;;20.27;;
50815;SDS011;39717;47.324;8.788;2023-03-01T04:25:12;32.53;;;20.13;;
50815;SDS011;39717;47.324;8.788;2023-03-01T04:27:39;32.77;;;19.70;;
50815;SDS011;39717;47.324;8.788;2023-03-01T04:30:06;35.93;;;22.20;;
50815;SDS011;39717;47.324;8.788;2023-03-01T04:32:32;32.90;;;20.23;;
50815;SDS011;39717;47.324;8.788;2023-03-01T04:34:58;32.80;;;19.97;;
50815;SDS011;39717;47.324;8.788;2023-03-01T04:37:25;34.03;;;20.07;;
50815;SDS011;39717;47.324;8.788;2023-03-01T04:39:51;34.80;;;21.17;;
50815;SDS011;39717;47.324;8.788;2023-03-01T04:42:17;40.37;;;20.40;;
50815;SDS011;39717;47.324;8.788;2023-03-01T04:44:44;35.53;;;20.47;;
50815;SDS011;39717;47.324;8.788;2023-03-01T04:47:11;34.37;;;20.70;;
50815;SDS011;39717;47.324;8.788;2023-03-01T04:49:38;36.37;;;21.07;;
50815;SDS011;39717;47.324;8.788;2023-03-01T04:52:04;34.10;;;20.43;;
50815;SDS011;39717;47.324;8.788;2023-03-01T04:54:31;32.53;;;19.13;;
50815;SDS011;39717;47.324;8.788;2023-03-01T04:56:57;38.30;;;20.67;;
50815;SDS011;39717;47.324;8.788;2023-03-01T04:59:23;33.17;;;20.17;;
50815;SDS011;39717;47.324;8.788;2023-03-01T05:01:50;30.80;;;18.47;;
50815;SDS011;39717;47.324;8.788;2023-03-01T05:04:17;32.37;;;19.53;;
50815;SDS011;39717;47.324;8.788;2023-03-01T05:06:43;38.83;;;20.70;;
50815;SDS011;39717;47.324;8.788;2023-03-01T05:09:09;33.57;;;19.37;;
50815;SDS011;39717;47.324;8.788;2023-03-01T05:11:36;34.90;;;20.23;;
50815;SDS011;39717;47.324;8.788;2023-03-01T05:14:03;35.93;;;19.17;;
50815;SDS011;39717;47.324;8.788;2023-03-01T05:16:29;30.63;;;18.97;;
50815;SDS011;39717;47.324;8.788;2023-03-01T05:18:57;30.23;;;17.23;;
50815;SDS011;39717;47.324;8.788;2023-03-01T05:21:24;32.60;;;19.10;;
50815;SDS011;39717;47.324;8.788;2023-03-01T05:23:50;33.03;;;18.73;;
50815;SDS011;39717;47.324;8.788;2023-03-01T05:26:17;31.50;;;19.30;;
50815;SDS011;39717;47.324;8.788;2023-03-01T05:28:45;30.10;;;18.47;;
50815;SDS011;39717;47.324;8.788;2023-03-01T05:31:11;28.47;;;17.20;;
50815;SDS011;39717;47.324;8.788;2023-03-01T05:33:37;33.43;;;19.87;;
50815;SDS011;39717;47.324;8.788;2023-03-01T05:36:04;32.50;;;17.87;;
50815;SDS011;39717;47.324;8.788;2023-03-01T05:38:30;29.90;;;17.73;;
50815;SDS011;39717;47.324;8.788;2023-03-01T05:40:56;33.90;;;19.47;;
50815;SDS011;39717;47.324;8.788;2023-03-01T05:43:23;29.20;;;18.60;;
50815;SDS011;39717;47.324;8.788;2023-03-01T05:45:49;38.03;;;19.87;;
50815;SDS011;39717;47.324;8.788;2023-03-01T05:48:15;30.50;;;18.33;;
50815;SDS011;39717;47.324;8.788;2023-03-01T05:50:42;33.93;;;20.20;;
50815;SDS011;39717;47.324;8.788;2023-03-01T05:53:12;32.07;;;18.87;;
50815;SDS011;39717;47.324;8.788;2023-03-01T05:55:39;33.27;;;19.50;;
50815;SDS011;39717;47.324;8.788;2023-03-01T05:58:07;33.50;;;19.40;;
50815;SDS011;39717;47.324;8.788;2023-03-01T06:00:34;35.00;;;20.17;;
50815;SDS011;39717;47.324;8.788;2023-03-01T06:03:01;32.33;;;19.17;;
50815;SDS011;39717;47.324;8.788;2023-03-01T06:05:29;34.60;;;20.13;;
50815;SDS011;39717;47.324;8.788;2023-03-01T06:07:58;38.47;;;21.27;;
50815;SDS011;39717;47.324;8.788;2023-03-01T06:10:24;35.10;;;20.40;;
50815;SDS011;39717;47.324;8.788;2023-03-01T06:12:50;33.37;;;20.00;;
50815;SDS011;39717;47.324;8.788;2023-03-01T06:15:17;34.60;;;20.50;;
50815;SDS011;39717;47.324;8.788;2023-03-01T06:17:43;38.70;;;20.97;;
50815;SDS011;39717;47.324;8.788;2023-03-01T06:22:37;32.50;;;20.30;;
50815;SDS011;39717;47.324;8.788;2023-03-01T06:25:03;35.03;;;21.03;;
50815;SDS011;39717;47.324;8.788;2023-03-01T06:27:29;36.83;;;21.10;;
50815;SDS011;39717;47.324;8.788;2023-03-01T06:29:55;35.47;;;19.03;;
50815;SDS011;39717;47.324;8.788;2023-03-01T06:32:21;36.57;;;20.47;;
50815;SDS011;39717;47.324;8.788;2023-03-01T06:34:47;32.33;;;18.50;;
50815;SDS011;39717;47.324;8.788;2023-03-01T06:37:14;40.17;;;19.63;;
50815;SDS011;39717;47.324;8.788;2023-03-01T06:39:40;35.60;;;18.50;;
50815;SDS011;39717;47.324;8.788;2023-03-01T06:42:07;34.17;;;19.20;;
50815;SDS011;39717;47.324;8.788;2023-03-01T06:44:35;30.30;;;18.57;;
50815;SDS011;39717;47.324;8.788;2023-03-01T06:47:01;31.87;;;18.63;;
50815;SDS011;39717;47.324;8.788;2023-03-01T06:49:28;33.63;;;18.57;;
50815;SDS011;39717;47.324;8.788;2023-03-01T06:51:55;31.73;;;17.77;;
50815;SDS011;39717;47.324;8.788;2023-03-01T06:54:22;33.30;;;18.37;;
50815;SDS011;39717;47.324;8.788;2023-03-01T06:56:48;29.70;;;17.87;;
50815;SDS011;39717;47.324;8.788;2023-03-01T06:59:15;31.70;;;18.40;;
50815;SDS011;39717;47.324;8.788;2023-03-01T07:01:41;32.47;;;18.13;;
50815;SDS011;39717;47.324;8.788;2023-03-01T07:04:09;30.50;;;18.13;;
50815;SDS011;39717;47.324;8.788;2023-03-01T07:06:35;33.27;;;18.50;;
50815;SDS011;39717;47.324;8.788;2023-03-01T07:09:01;31.27;;;18.40;;
50815;SDS011;39717;47.324;8.788;2023-03-01T07:11:27;31.27;;;17.83;;
50815;SDS011;39717;47.324;8.788;2023-03-01T07:13:54;32.97;;;17.97;;
50815;SDS011;39717;47.324;8.788;2023-03-01T07:16:21;33.10;;;18.07;;
50815;SDS011;39717;47.324;8.788;2023-03-01T07:18:47;34.27;;;18.73;;
50815;SDS011;39717;47.324;8.788;2023-03-01T07:21:14;32.23;;;18.63;;
50815;SDS011;39717;47.324;8.788;2023-03-01T07:23:41;31.83;;;18.93;;
50815;SDS011;39717;47.324;8.788;2023-03-01T07:26:08;36.17;;;18.40;;
50815;SDS011;39717;47.324;8.788;2023-03-01T07:28:34;33.80;;;17.53;;
50815;SDS011;39717;47.324;8.788;2023-03-01T07:31:03;35.90;;;19.47;;
50815;SDS011;39717;47.324;8.788;2023-03-01T07:33:29;38.17;;;19.23;;
50815;SDS011;39717;47.324;8.788;2023-03-01T07:35:56;31.20;;;18.00;;
50815;SDS011;39717;47.324;8.788;2023-03-01T07:38:23;31.03;;;16.97;;
50815;SDS011;39717;47.324;8.788;2023-03-01T07:40:49;32.23;;;18.77;;
50815;SDS011;39717;47.324;8.788;2023-03-01T07:43:15;34.30;;;19.30;;
50815;SDS011;39717;47.324;8.788;2023-03-01T07:45:41;35.47;;;19.60;;
50815;SDS011;39717;47.324;8.788;2023-03-01T07:48:07;30.37;;;18.47;;
50815;SDS011;39717;47.324;8.788;2023-03-01T07:50:33;36.17;;;20.37;;
50815;SDS011;39717;47.324;8.788;2023-03-01T07:52:59;35.73;;;19.43;;
50815;SDS011;39717;47.324;8.788;2023-03-01T07:55:25;31.93;;;18.17;;
50815;SDS011;39717;47.324;8.788;2023-03-01T07:57:51;32.20;;;18.67;;
50815;SDS011;39717;47.324;8.788;2023-03-01T08:00:17;33.47;;;19.03;;
50815;SDS011;39717;47.324;8.788;2023-03-01T08:02:44;32.60;;;18.70;;
50815;SDS011;39717;47.324;8.788;2023-03-01T08:05:10;34.87;;;19.27;;
50815;SDS011;39717;47.324;8.788;2023-03-01T08:07:36;33.83;;;18.97;;
50815;SDS011;39717;47.324;8.788;2023-03-01T08:10:03;36.60;;;19.83;;
50815;SDS011;39717;47.324;8.788;2023-03-01T08:12:29;32.13;;;18.63;;
50815;SDS011;39717;47.324;8.788;2023-03-01T08:14:55;36.37;;;19.93;;
50815;SDS011;39717;47.324;8.788;2023-03-01T08:17:22;30.57;;;17.93;;
50815;SDS011;39717;47.324;8.788;2023-03-01T08:19:48;35.43;;;20.50;;
50815;SDS011;39717;47.324;8.788;2023-03-01T08:22:14;34.37;;;19.13;;
50815;SDS011;39717;47.324;8.788;2023-03-01T08:24:40;35.13;;;20.90;;
50815;SDS011;39717;47.324;8.788;2023-03-01T08:27:06;33.97;;;17.93;;
50815;SDS011;39717;47.324;8.788;2023-03-01T08:29:33;30.00;;;18.33;;
50815;SDS011;39717;47.324;8.788;2023-03-01T08:31:59;28.67;;;18.00;;
50815;SDS011;39717;47.324;8.788;2023-03-01T08:34:25;32.73;;;18.17;;
50815;SDS011;39717;47.324;8.788;2023-03-01T08:36:52;33.53;;;18.07;;
50815;SDS011;39717;47.324;8.788;2023-03-01T08:39:18;32.03;;;18.43;;
50815;SDS011;39717;47.324;8.788;2023-03-01T08:41:45;34.07;;;17.50;;
50815;SDS011;39717;47.324;8.788;2023-03-01T08:44:12;33.37;;;18.43;;
50815;SDS011;39717;47.324;8.788;2023-03-01T08:46:39;31.77;;;17.80;;
50815;SDS011;39717;47.324;8.788;2023-03-01T08:49:07;29.87;;;17.87;;
50815;SDS011;39717;47.324;8.788;2023-03-01T08:51:34;35.63;;;18.83;;
50815;SDS011;39717;47.324;8.788;2023-03-01T08:54:23;30.77;;;18.37;;
50815;SDS011;39717;47.324;8.788;2023-03-01T08:56:48;30.03;;;17.67;;
50815;SDS011;39717;47.324;8.788;2023-03-01T08:59:14;32.07;;;18.37;;
50815;SDS011;39717;47.324;8.788;2023-03-01T09:01:41;29.53;;;17.10;;
50815;SDS011;39717;47.324;8.788;2023-03-01T09:04:09;32.67;;;18.13;;
50815;SDS011;39717;47.324;8.788;2023-03-01T09:06:35;31.90;;;18.23;;
50815;SDS011;39717;47.324;8.788;2023-03-01T09:09:03;30.10;;;18.17;;
50815;SDS011;39717;47.324;8.788;2023-03-01T09:11:29;29.93;;;17.53;;
50815;SDS011;39717;47.324;8.788;2023-03-01T09:13:55;30.10;;;15.97;;
50815;SDS011;39717;47.324;8.788;2023-03-01T09:16:22;34.23;;;18.73;;
50815;SDS011;39717;47.324;8.788;2023-03-01T09:18:49;33.33;;;19.67;;
50815;SDS011;39717;47.324;8.788;2023-03-01T09:21:16;29.63;;;17.50;;
50815;SDS011;39717;47.324;8.788;2023-03-01T09:23:44;27.30;;;16.60;;
50815;SDS011;39717;47.324;8.788;2023-03-01T09:26:12;29.50;;;17.03;;
50815;SDS011;39717;47.324;8.788;2023-03-01T09:28:39;27.57;;;16.00;;
50815;SDS011;39717;47.324;8.788;2023-03-01T09:31:12;30.17;;;16.10;;
50815;SDS011;39717;47.324;8.788;2023-03-01T09:33:39;26.23;;;15.77;;
50815;SDS011;39717;47.324;8.788;2023-03-01T09:36:06;26.07;;;16.30;;
50815;SDS011;39717;47.324;8.788;2023-03-01T09:38:33;24.60;;;15.83;;
50815;SDS011;39717;47.324;8.788;2023-03-01T09:41:00;29.53;;;15.87;;
50815;SDS011;39717;47.324;8.788;2023-03-01T09:43:29;27.27;;;16.17;;
50815;SDS011;39717;47.324;8.788;2023-03-01T09:45:59;25.33;;;14.20;;
50815;SDS011;39717;47.324;8.788;2023-03-01T09:48:27;27.97;;;15.57;;
50815;SDS011;39717;47.324;8.788;2023-03-01T09:50:55;25.10;;;14.63;;
50815;SDS011;39717;47.324;8.788;2023-03-01T09:53:23;26.20;;;15.97;;
50815;SDS011;39717;47.324;8.788;2023-03-01T09:55:54;26.37;;;14.87;;
50815;SDS011;39717;47.324;8.788;2023-03-01T10:01:11;27.63;;;16.50;;
50815;SDS011;39717;47.324;8.788;2023-03-01T10:03:43;26.00;;;16.10;;
50815;SDS011;39717;47.324;8.788;2023-03-01T10:06:12;28.73;;;16.07;;
50815;SDS011;39717;47.324;8.788;2023-03-01T10:09:14;26.50;;;15.73;;
50815;SDS011;39717;47.324;8.788;2023-03-01T10:11:35;26.47;;;16.67;;
50815;SDS011;39717;47.324;8.788;2023-03-01T10:19:11;24.53;;;14.27;;
50815;SDS011;39717;47.324;8.788;2023-03-01T10:21:40;22.80;;;14.47;;
50815;SDS011;39717;47.324;8.788;2023-03-01T10:24:12;24.13;;;15.13;;
50815;SDS011;39717;47.324;8.788;2023-03-01T10:26:47;27.57;;;15.63;;
50815;SDS011;39717;47.324;8.788;2023-03-01T10:29:14;23.43;;;14.37;;
50815;SDS011;39717;47.324;8.788;2023-03-01T10:31:47;25.27;;;16.27;;
50815;SDS011;39717;47.324;8.788;2023-03-01T10:36:45;27.73;;;16.13;;
50815;SDS011;39717;47.324;8.788;2023-03-01T10:39:20;24.60;;;15.10;;
50815;SDS011;39717;47.324;8.788;2023-03-01T10:41:54;27.20;;;16.23;;
50815;SDS011;39717;47.324;8.788;2023-03-01T10:44:41;27.37;;;16.03;;
50815;SDS011;39717;47.324;8.788;2023-03-01T10:47:12;24.53;;;14.40;;
50815;SDS011;39717;47.324;8.788;2023-03-01T10:49:39;25.13;;;15.30;;
50815;SDS011;39717;47.324;8.788;2023-03-01T10:52:17;27.27;;;16.23;;
50815;SDS011;39717;47.324;8.788;2023-03-01T10:54:45;24.83;;;14.93;;
50815;SDS011;39717;47.324;8.788;2023-03-01T10:57:30;24.70;;;14.97;;
50815;SDS011;39717;47.324;8.788;2023-03-01T11:00:01;26.13;;;15.97;;
50815;SDS011;39717;47.324;8.788;2023-03-01T11:02:29;27.83;;;15.43;;
50815;SDS011;39717;47.324;8.788;2023-03-01T11:04:58;25.07;;;15.53;;
50815;SDS011;39717;47.324;8.788;2023-03-01T11:07:25;25.63;;;15.10;;
50815;SDS011;39717;47.324;8.788;2023-03-01T11:09:51;25.50;;;15.97;;
50815;SDS011;39717;47.324;8.788;2023-03-01T11:12:18;24.07;;;15.17;;
50815;SDS011;39717;47.324;8.788;2023-03-01T11:14:49;25.53;;;16.47;;
50815;SDS011;39717;47.324;8.788;2023-03-01T11:17:23;27.20;;;15.80;;
50815;SDS011;39717;47.324;8.788;2023-03-01T11:22:35;26.37;;;16.30;;
50815;SDS011;39717;47.324;8.788;2023-03-01T11:25:02;25.60;;;16.17;;
50815;SDS011;39717;47.324;8.788;2023-03-01T11:27:31;24.90;;;15.80;;
50815;SDS011;39717;47.324;8.788;2023-03-01T11:30:15;27.33;;;16.20;;
50815;SDS011;39717;47.324;8.788;2023-03-01T11:32:48;27.63;;;15.40;;
50815;SDS011;39717;47.324;8.788;2023-03-01T11:35:18;25.60;;;16.10;;
50815;SDS011;39717;47.324;8.788;2023-03-01T11:40:29;26.67;;;16.63;;
50815;SDS011;39717;47.324;8.788;2023-03-01T11:43:43;25.97;;;15.93;;
50815;SDS011;39717;47.324;8.788;2023-03-01T11:45:47;27.00;;;16.13;;
50815;SDS011;39717;47.324;8.788;2023-03-01T11:48:24;25.63;;;15.27;;
50815;SDS011;39717;47.324;8.788;2023-03-01T11:50:53;26.87;;;16.97;;
50815;SDS011;39717;47.324;8.788;2023-03-01T12:06:57;25.10;;;15.53;;
50815;SDS011;39717;47.324;8.788;2023-03-01T12:09:47;25.60;;;15.03;;
50815;SDS011;39717;47.324;8.788;2023-03-01T12:22:31;26.23;;;15.77;;
50815;SDS011;39717;47.324;8.788;2023-03-01T12:25:15;24.50;;;16.63;;
50815;SDS011;39717;47.324;8.788;2023-03-01T12:28:04;29.80;;;16.53;;
50815;SDS011;39717;47.324;8.788;2023-03-01T12:31:00;26.97;;;16.03;;
50815;SDS011;39717;47.324;8.788;2023-03-01T12:36:28;25.70;;;15.80;;
50815;SDS011;39717;47.324;8.788;2023-03-01T12:49:18;27.47;;;16.03;;
50815;SDS011;39717;47.324;8.788;2023-03-01T12:51:56;27.87;;;17.03;;
50815;SDS011;39717;47.324;8.788;2023-03-01T12:54:27;25.23;;;15.73;;
50815;SDS011;39717;47.324;8.788;2023-03-01T12:56:54;25.23;;;14.77;;
50815;SDS011;39717;47.324;8.788;2023-03-01T12:59:23;25.33;;;15.73;;
50815;SDS011;39717;47.324;8.788;2023-03-01T13:01:55;26.73;;;15.83;;
50815;SDS011;39717;47.324;8.788;2023-03-01T13:04:34;23.80;;;15.20;;
50815;SDS011;39717;47.324;8.788;2023-03-01T13:07:14;36.03;;;21.57;;
50815;SDS011;39717;47.324;8.788;2023-03-01T13:12:46;24.17;;;15.20;;
50815;SDS011;39717;47.324;8.788;2023-03-01T13:17:48;25.90;;;16.00;;
50815;SDS011;39717;47.324;8.788;2023-03-01T13:20:15;23.63;;;15.47;;
50815;SDS011;39717;47.324;8.788;2023-03-01T13:22:42;26.63;;;15.57;;
50815;SDS011;39717;47.324;8.788;2023-03-01T13:25:13;25.57;;;15.60;;
50815;SDS011;39717;47.324;8.788;2023-03-01T13:27:40;24.13;;;15.37;;
50815;SDS011;39717;47.324;8.788;2023-03-01T13:30:38;25.80;;;17.07;;
50815;SDS011;39717;47.324;8.788;2023-03-01T13:32:53;24.50;;;15.17;;
50815;SDS011;39717;47.324;8.788;2023-03-01T13:35:43;26.70;;;16.47;;
50815;SDS011;39717;47.324;8.788;2023-03-01T13:43:34;25.10;;;15.87;;
50815;SDS011;39717;47.324;8.788;2023-03-01T13:46:01;28.77;;;17.33;;
50815;SDS011;39717;47.324;8.788;2023-03-01T13:48:29;26.47;;;16.30;;
50815;SDS011;39717;47.324;8.788;2023-03-01T13:51:00;29.10;;;16.70;;
50815;SDS011;39717;47.324;8.788;2023-03-01T13:53:29;24.43;;;15.07;;
50815;SDS011;39717;47.324;8.788;2023-03-01T13:55:58;26.53;;;15.83;;
50815;SDS011;39717;47.324;8.788;2023-03-01T13:58:28;27.10;;;16.90;;
50815;SDS011;39717;47.324;8.788;2023-03-01T14:00:55;24.07;;;15.17;;
50815;SDS011;39717;47.324;8.788;2023-03-01T14:03:22;25.77;;;14.97;;
50815;SDS011;39717;47.324;8.788;2023-03-01T14:06:08;26.47;;;16.93;;
50815;SDS011;39717;47.324;8.788;2023-03-01T14:08:36;24.77;;;15.47;;
50815;SDS011;39717;47.324;8.788;2023-03-01T14:14:01;28.63;;;15.67;;
50815;SDS011;39717;47.324;8.788;2023-03-01T14:16:44;24.47;;;14.47;;
50815;SDS011;39717;47.324;8.788;2023-03-01T14:19:31;26.17;;;16.30;;
50815;SDS011;39717;47.324;8.788;2023-03-01T14:24:29;26.03;;;16.00;;
50815;SDS011;39717;47.324;8.788;2023-03-01T14:26:58;26.97;;;16.87;;
50815;SDS011;39717;47.324;8.788;2023-03-01T14:29:32;25.90;;;15.57;;
50815;SDS011;39717;47.324;8.788;2023-03-01T14:34:59;29.03;;;17.37;;
50815;SDS011;39717;47.324;8.788;2023-03-01T14:37:30;30.10;;;17.93;;
50815;SDS011;39717;47.324;8.788;2023-03-01T14:39:58;27.13;;;17.63;;
50815;SDS011;39717;47.324;8.788;2023-03-01T14:42:25;28.53;;;17.57;;
50815;SDS011;39717;47.324;8.788;2023-03-01T14:44:53;28.23;;;17.70;;
50815;SDS011;39717;47.324;8.788;2023-03-01T14:49:49;27.97;;;17.27;;
50815;SDS011;39717;47.324;8.788;2023-03-01T14:52:18;26.93;;;16.93;;
50815;SDS011;39717;47.324;8.788;2023-03-01T14:54:46;25.30;;;17.03;;
50815;SDS011;39717;47.324;8.788;2023-03-01T14:57:15;29.73;;;17.50;;
50815;SDS011;39717;47.324;8.788;2023-03-01T14:59:42;29.67;;;17.60;;
50815;SDS011;39717;47.324;8.788;2023-03-01T15:02:11;30.00;;;18.60;;
50815;SDS011;39717;47.324;8.788;2023-03-01T15:04:42;26.83;;;17.70;;
50815;SDS011;39717;47.324;8.788;2023-03-01T15:07:09;28.07;;;18.00;;
50815;SDS011;39717;47.324;8.788;2023-03-01T15:09:39;29.27;;;17.40;;
50815;SDS011;39717;47.324;8.788;2023-03-01T15:12:25;29.67;;;18.00;;
50815;SDS011;39717;47.324;8.788;2023-03-01T15:14:51;30.13;;;17.77;;
50815;SDS011;39717;47.324;8.788;2023-03-01T15:19:56;29.63;;;17.87;;
50815;SDS011;39717;47.324;8.788;2023-03-01T15:22:22;25.93;;;17.13;;
50815;SDS011;39717;47.324;8.788;2023-03-01T15:24:51;28.60;;;16.30;;
50815;SDS011;39717;47.324;8.788;2023-03-01T15:27:18;28.30;;;17.40;;
50815;SDS011;39717;47.324;8.788;2023-03-01T15:29:49;26.60;;;17.60;;
50815;SDS011;39717;47.324;8.788;2023-03-01T15:34:51;36.20;;;18.00;;
50815;SDS011;39717;47.324;8.788;2023-03-01T15:40:02;28.13;;;18.20;;
50815;SDS011;39717;47.324;8.788;2023-03-01T15:45:19;29.03;;;18.33;;
50815;SDS011;39717;47.324;8.788;2023-03-01T15:47:50;32.00;;;19.10;;
50815;SDS011;39717;47.324;8.788;2023-03-01T15:50:22;30.03;;;18.77;;
50815;SDS011;39717;47.324;8.788;2023-03-01T15:52:49;31.30;;;19.40;;
50815;SDS011;39717;47.324;8.788;2023-03-01T15:57:41;32.40;;;19.20;;
50815;SDS011;39717;47.324;8.788;2023-03-01T16:00:09;31.20;;;19.00;;
50815;SDS011;39717;47.324;8.788;2023-03-01T16:02:36;29.27;;;18.87;;
50815;SDS011;39717;47.324;8.788;2023-03-01T16:05:03;29.57;;;18.20;;
50815;SDS011;39717;47.324;8.788;2023-03-01T16:07:29;29.20;;;18.23;;